createdAt,value
2022-09-28T10:18:34.840Z,71.66
2022-09-28T10:21:23.593Z,71.79
2022-09-28T10:24:03.571Z,68.34
2022-09-28T10:26:35.668Z,68.01
2022-09-28T10:29:06.255Z,66.92
2022-09-28T10:31:41.996Z,67.36
2022-09-28T10:34:26.439Z,64.01
2022-09-28T10:37:06.691Z,64.15
2022-09-28T10:39:53.559Z,63.86
2022-09-28T10:42:29.892Z,66.58
2022-09-28T10:45:20.124Z,61.60
2022-09-28T10:47:46.732Z,60.77
2022-09-28T10:50:22.628Z,57.71
2022-09-28T10:52:53.310Z,57.79
2022-09-28T10:56:03.959Z,56.36
2022-09-28T10:58:42.029Z,58.21
2022-09-28T11:01:16.305Z,56.62
2022-09-28T11:04:04.635Z,54.30
2022-09-28T11:06:39.267Z,54.92
2022-09-28T11:09:32.521Z,55.43
2022-09-28T11:12:06.868Z,54.97
2022-09-28T11:14:42.042Z,55.12
2022-09-28T11:17:26.433Z,54.62
2022-09-28T11:19:53.848Z,55.06
2022-09-28T11:22:23.438Z,58.13
2022-09-28T11:24:52.416Z,58.01
2022-09-28T11:27:22.103Z,57.59
2022-09-28T11:29:58.648Z,58.55
2022-09-28T11:32:41.822Z,58.39
2022-09-28T11:35:29.066Z,58.23
2022-09-28T11:38:36.381Z,59.91
2022-09-28T11:41:41.424Z,61.94
2022-09-28T11:44:33.222Z,63.86
2022-09-28T11:47:27.204Z,66.40
2022-09-28T11:50:22.899Z,67.17
2022-09-28T11:53:18.608Z,67.46
2022-09-28T11:55:59.730Z,68.79
2022-09-28T11:58:42.643Z,69.62
2022-09-28T12:01:45.816Z,71.40
2022-09-28T12:04:36.960Z,71.24
2022-09-28T12:07:08.380Z,72.50
2022-09-28T12:09:41.303Z,72.79
2022-09-28T12:12:22.158Z,72.75
2022-09-28T12:14:53.325Z,74.50
2022-09-28T12:17:34.541Z,77.44
2022-09-28T12:20:16.559Z,79.00
2022-09-28T12:22:54.096Z,82.00
2022-09-28T12:25:23.204Z,83.47
2022-09-28T12:28:03.292Z,83.67
2022-09-28T12:30:35.626Z,84.45
2022-09-28T12:33:17.897Z,85.68
2022-09-28T12:36:11.972Z,85.31
2022-09-28T12:39:20.233Z,84.92
2022-09-28T12:42:18.357Z,85.43
2022-09-28T12:44:59.294Z,84.74
2022-09-28T12:47:45.904Z,85.24
2022-09-28T12:50:44.771Z,85.30
2022-09-28T12:53:28.015Z,86.15
2022-09-28T12:55:57.140Z,87.15
2022-09-28T12:59:02.388Z,87.29
2022-09-28T13:01:58.363Z,84.13
2022-09-28T13:05:02.251Z,82.56
2022-09-28T13:07:39.611Z,83.18
2022-09-28T13:10:23.568Z,82.58
2022-09-28T13:13:08.327Z,80.74
2022-09-28T13:15:45.344Z,79.30
2022-09-28T13:18:22.740Z,75.89
2022-09-28T13:21:03.764Z,76.75
2022-09-28T13:23:35.582Z,77.12
2022-09-28T13:26:14.844Z,76.53
2022-09-28T13:28:43.488Z,76.85
2022-09-28T13:31:11.220Z,76.97
2022-09-28T13:33:43.975Z,74.52
2022-09-28T13:36:25.001Z,74.27
2022-09-28T13:38:52.323Z,73.82
2022-09-28T13:41:21.993Z,73.42
2022-09-28T13:44:08.280Z,74.02
2022-09-28T13:47:04.640Z,74.86
2022-09-28T13:49:48.098Z,75.46
2022-09-28T13:52:43.114Z,75.33
2022-09-28T13:55:28.882Z,75.23
2022-09-28T13:57:56.850Z,75.18
2022-09-28T14:00:30.798Z,75.28
2022-09-28T14:03:04.692Z,73.33
2022-09-28T14:05:45.408Z,73.32
2022-09-28T14:08:47.282Z,73.01
2022-09-28T14:11:42.578Z,73.13
2022-09-28T14:14:08.745Z,72.44
2022-09-28T14:16:37.376Z,71.43
2022-09-28T14:19:10.147Z,70.13
2022-09-28T14:22:06.367Z,71.10
2022-09-28T14:25:00.330Z,71.30
2022-09-28T14:27:40.375Z,70.55
2022-09-28T14:30:25.817Z,70.28
2022-09-28T14:32:59.648Z,70.56
2022-09-28T14:35:56.360Z,71.18
2022-09-28T14:38:47.376Z,72.25
2022-09-28T14:41:17.467Z,71.93
2022-09-28T14:43:43.470Z,72.58
2022-09-28T14:46:15.530Z,69.92
2022-09-28T14:48:48.257Z,70.76
2022-09-28T14:51:35.584Z,71.35
2022-09-28T14:54:07.556Z,72.01
2022-09-28T14:56:38.860Z,72.04
2022-09-28T14:59:07.087Z,71.73
2022-09-28T15:01:35.586Z,73.07
2022-09-28T15:04:04.762Z,73.01
2022-09-28T15:06:48.177Z,74.04
2022-09-28T15:09:32.479Z,74.46
2022-09-28T15:12:10.158Z,74.31
2022-09-28T15:14:46.124Z,75.38
2022-09-28T15:17:16.386Z,75.53
2022-09-28T15:20:08.860Z,76.16
2022-09-28T15:22:36.740Z,77.44
2022-09-28T15:25:13.705Z,77.12
2022-09-28T15:27:41.287Z,77.66
2022-09-28T15:30:26.630Z,77.82
2022-09-28T15:32:56.719Z,78.39
2022-09-28T15:35:26.363Z,78.67
2022-09-28T15:37:54.945Z,79.92
2022-09-28T15:40:38.735Z,79.52
2022-09-28T15:43:24.182Z,79.25
2022-09-28T15:46:04.497Z,79.69
2022-09-28T15:48:40.743Z,80.83
2022-09-28T15:51:12.808Z,79.92
2022-09-28T15:53:48.902Z,80.19
2022-09-28T15:56:15.067Z,80.62
2022-09-28T15:58:41.767Z,80.91
2022-09-28T16:01:38.293Z,82.01
2022-09-28T16:04:48.021Z,82.96
2022-09-28T16:07:21.059Z,83.75
2022-09-28T16:09:56.837Z,84.21
2022-09-28T16:12:25.330Z,84.57
2022-09-28T16:14:53.132Z,85.37
2022-09-28T16:17:32.529Z,85.84
2022-09-28T16:20:03.257Z,86.00
2022-09-28T22:18:54.972Z,100.00
2022-09-28T22:21:32.726Z,100.00
2022-09-28T22:24:01.192Z,100.00
2022-09-28T22:26:28.509Z,100.00
2022-09-28T22:28:57.204Z,100.00
2022-09-28T22:31:26.798Z,100.00
2022-09-28T22:33:53.722Z,100.00
2022-09-28T22:36:20.036Z,100.00
2022-09-28T22:38:47.394Z,100.00
2022-09-28T22:41:20.671Z,100.00
2022-09-28T22:43:47.461Z,100.00
2022-09-28T22:46:16.980Z,100.00
2022-09-28T22:48:47.497Z,100.00
2022-09-28T22:51:14.661Z,100.00
2022-09-28T22:53:40.768Z,100.00
2022-09-28T22:56:07.494Z,100.00
2022-09-28T22:58:34.659Z,100.00
2022-09-28T23:01:12.082Z,100.00
2022-09-28T23:03:40.228Z,100.00
2022-09-28T23:06:07.302Z,100.00
2022-09-28T23:08:33.395Z,100.00
2022-09-28T23:10:59.669Z,100.00
2022-09-28T23:13:25.775Z,100.00
2022-09-28T23:16:02.978Z,100.00
2022-09-28T23:18:31.861Z,100.00
2022-09-28T23:21:01.294Z,100.00
2022-09-28T23:23:28.044Z,100.00
2022-09-28T23:25:55.308Z,100.00
2022-09-28T23:28:23.207Z,100.00
2022-09-28T23:30:49.679Z,100.00
2022-09-28T23:33:17.179Z,100.00
2022-09-28T23:35:44.095Z,100.00
2022-09-28T23:38:15.492Z,100.00
2022-09-28T23:40:41.894Z,100.00
2022-09-28T23:43:08.695Z,100.00
2022-09-28T23:45:35.352Z,100.00
2022-09-28T23:48:01.796Z,100.00
2022-09-28T23:50:28.292Z,100.00
2022-09-28T23:52:54.387Z,100.00
2022-09-28T23:55:20.476Z,100.00
2022-09-28T23:57:46.690Z,100.00
